Terminal Aerodrome Forecast
Issued by NWS Pueblo, CO

Home | Current Version | Previous Version | Text Only | Print | Product List | Glossary On
Versions: 1 2 3 4 5 6 7 8 9 10 11 12 13 14 15 16 17 18 19 20 21 22 23 24 25 26 27 28 29 30 31 32 33 34 35 36 37 38 39 40 41 42 43 44 45 46 47 48 49 50
000
FTUS45 KPUB 292336
TAFPUB
TAF
KPUB 292336Z 3000/3024 VRB06KT P6SM SCT015 BKN025 OVC035
      TEMPO 3000/3003 5SM -SN BR BKN015
     FM300300 VRB06KT P6SM SCT015 OVC025
      TEMPO 3003/3005 -SHSN
     FM301000 VRB05KT 1SM BR OVC012
     FM301500 01010KT P6SM SCT015 BKN040
     FM301900 01015G25KT P6SM BKN040=

USA.gov is the U.S. government's official web portal to all federal, state and local government web resources and services.